createdAt,value
2017-11-12T00:00:16.814Z,26.40
2017-11-12T00:02:45.658Z,24.53
2017-11-12T00:05:14.512Z,28.80
2017-11-12T00:07:43.391Z,26.27
2017-11-12T00:10:13.019Z,27.67
2017-11-12T00:12:41.873Z,27.10
2017-11-12T00:15:10.718Z,27.37
2017-11-12T00:17:39.581Z,26.27
2017-11-12T00:20:09.197Z,25.17
2017-11-12T00:22:38.077Z,25.73
2017-11-12T00:25:07.699Z,26.63
2017-11-12T00:27:36.540Z,25.97
2017-11-12T00:30:05.377Z,26.63
2017-11-12T00:32:34.573Z,26.87
2017-11-12T00:35:03.424Z,26.03
2017-11-12T00:37:32.267Z,25.60
2017-11-12T00:40:01.122Z,24.43
2017-11-12T00:42:30.725Z,26.67
2017-11-12T00:45:00.347Z,27.30
2017-11-12T00:47:29.192Z,23.90
2017-11-12T00:49:59.901Z,24.10
2017-11-12T00:52:29.471Z,25.77
2017-11-12T00:54:58.308Z,25.07
2017-11-12T00:57:27.148Z,23.30
2017-11-12T00:59:56.756Z,23.37
2017-11-12T01:02:25.588Z,23.03
2017-11-12T01:04:54.436Z,23.77
2017-11-12T01:07:24.399Z,24.77
2017-11-12T01:09:53.271Z,23.40
2017-11-12T01:12:22.120Z,24.67
2017-11-12T01:14:50.953Z,25.73
2017-11-12T01:17:19.803Z,22.40
2017-11-12T01:19:48.640Z,24.53
2017-11-12T01:22:17.505Z,23.23
2017-11-12T01:24:46.468Z,22.50
2017-11-12T01:27:15.356Z,22.37
2017-11-12T01:29:44.197Z,21.23
2017-11-12T01:32:13.139Z,22.40
2017-11-12T01:34:41.993Z,22.03
2017-11-12T01:37:10.838Z,21.90
2017-11-12T01:39:40.441Z,23.00
2017-11-12T01:42:09.897Z,20.10
2017-11-12T01:44:38.789Z,21.00
2017-11-12T01:47:07.613Z,20.20
2017-11-12T01:49:37.247Z,19.00
2017-11-12T01:52:06.088Z,21.80
2017-11-12T01:54:34.925Z,22.13
2017-11-12T01:57:03.779Z,19.97
2017-11-12T01:59:33.397Z,21.77
2017-11-12T02:02:03.015Z,20.30
2017-11-12T02:04:31.856Z,21.80
2017-11-12T02:07:01.697Z,21.00
2017-11-12T02:09:31.309Z,21.00
2017-11-12T02:12:00.932Z,24.60
2017-11-12T02:14:30.088Z,23.53
2017-11-12T02:16:58.925Z,24.23
2017-11-12T02:19:28.128Z,24.77
2017-11-12T02:21:56.956Z,21.27
2017-11-12T02:24:26.824Z,23.53
2017-11-12T02:26:55.677Z,22.23
2017-11-12T02:29:25.290Z,22.97
2017-11-12T02:31:54.909Z,22.67
2017-11-12T02:34:24.524Z,25.50
2017-11-12T02:36:54.111Z,23.10
2017-11-12T02:39:23.754Z,24.00
2017-11-12T02:41:52.608Z,26.63
2017-11-12T02:44:22.232Z,25.73
2017-11-12T02:46:51.088Z,24.00
2017-11-12T02:49:19.922Z,27.33
2017-11-12T02:51:48.774Z,24.90
2017-11-12T02:54:18.378Z,27.97
2017-11-12T02:56:47.995Z,28.20
2017-11-12T02:59:16.861Z,29.87
2017-11-12T03:01:45.705Z,30.40
2017-11-12T03:04:14.544Z,30.27
2017-11-12T03:06:43.390Z,28.60
2017-11-12T03:09:12.248Z,31.40
2017-11-12T03:11:41.842Z,31.23
2017-11-12T03:14:11.471Z,34.57
2017-11-12T03:16:40.656Z,33.13
2017-11-12T03:19:09.511Z,31.83
2017-11-12T03:21:38.357Z,31.43
2017-11-12T03:24:07.208Z,30.20
2017-11-12T03:26:36.841Z,30.43
2017-11-12T03:29:05.691Z,33.23
2017-11-12T03:31:34.532Z,31.87
2017-11-12T03:34:03.372Z,29.20
2017-11-12T03:36:33.121Z,30.43
2017-11-12T03:39:02.734Z,30.10
2017-11-12T03:41:31.568Z,31.20
2017-11-12T03:44:00.409Z,29.80
2017-11-12T03:46:29.264Z,28.97
2017-11-12T03:48:58.107Z,29.03
2017-11-12T03:51:26.938Z,32.27
2017-11-12T03:53:55.814Z,29.97
2017-11-12T03:56:24.672Z,28.77
2017-11-12T03:58:53.509Z,29.43
2017-11-12T04:01:23.356Z,29.70
2017-11-12T04:03:52.338Z,26.67
2017-11-12T04:06:21.169Z,27.73
2017-11-12T04:08:50.021Z,27.00
2017-11-12T04:11:18.874Z,29.10
2017-11-12T04:13:49.291Z,26.90
2017-11-12T04:16:18.128Z,27.03
2017-11-12T04:18:47.604Z,28.80
2017-11-12T04:21:17.228Z,28.10
2017-11-12T04:23:46.197Z,27.27
2017-11-12T04:26:15.056Z,25.87
2017-11-12T04:28:43.885Z,28.70
2017-11-12T04:31:13.484Z,26.87
2017-11-12T04:33:42.553Z,28.17
2017-11-12T04:36:12.196Z,27.80
2017-11-12T04:38:41.043Z,27.57
2017-11-12T04:41:09.869Z,25.23
2017-11-12T04:43:39.469Z,28.10
2017-11-12T04:46:09.090Z,27.83
2017-11-12T04:48:37.941Z,27.17
2017-11-12T04:51:06.791Z,27.50
2017-11-12T04:53:35.624Z,26.60
2017-11-12T04:56:05.235Z,27.73
2017-11-12T04:58:34.529Z,28.60
2017-11-12T05:01:04.138Z,26.37
2017-11-12T05:03:33.771Z,27.43
2017-11-12T05:06:02.607Z,29.93
2017-11-12T05:08:31.455Z,27.53
2017-11-12T05:11:00.299Z,26.90
2017-11-12T05:13:29.132Z,27.60
2017-11-12T05:15:58.423Z,28.00
2017-11-12T05:18:27.365Z,28.53
2017-11-12T05:20:56.199Z,29.10
2017-11-12T05:23:25.020Z,28.20
2017-11-12T05:25:53.864Z,27.23
2017-11-12T05:28:23.492Z,28.23
2017-11-12T05:30:52.353Z,27.27
2017-11-12T05:33:21.960Z,29.50
2017-11-12T05:35:51.592Z,27.93
2017-11-12T05:38:20.452Z,27.27
2017-11-12T05:40:49.279Z,27.70
2017-11-12T05:43:18.135Z,28.17
2017-11-12T05:45:47.748Z,28.93
2017-11-12T05:48:17.357Z,29.63
2017-11-12T05:50:46.500Z,28.00
2017-11-12T05:53:16.153Z,29.47
2017-11-12T05:55:45.692Z,25.73
2017-11-12T05:58:14.536Z,28.67
2017-11-12T06:00:43.374Z,28.17
2017-11-12T06:03:12.212Z,27.77
2017-11-12T06:05:41.073Z,28.43
2017-11-12T06:08:09.900Z,25.57
2017-11-12T06:10:38.785Z,29.73
2017-11-12T06:13:09.127Z,30.20
2017-11-12T06:15:38.764Z,30.10
2017-11-12T06:18:07.610Z,29.20
2017-11-12T06:20:36.455Z,28.57
2017-11-12T06:23:05.300Z,26.77
2017-11-12T06:25:34.167Z,28.00
2017-11-12T06:28:03.008Z,28.17
2017-11-12T06:30:31.843Z,28.20
2017-11-12T06:33:00.692Z,28.33
2017-11-12T06:35:29.549Z,27.60
2017-11-12T06:37:59.153Z,29.10
2017-11-12T06:40:28.765Z,27.30
2017-11-12T06:42:58.372Z,28.87
2017-11-12T06:45:27.225Z,28.03
2017-11-12T06:47:56.073Z,27.43
2017-11-12T06:50:24.925Z,28.10
2017-11-12T06:52:54.534Z,30.37
2017-11-12T06:55:23.383Z,27.87
2017-11-12T06:57:52.216Z,27.77
2017-11-12T07:00:21.069Z,29.80
2017-11-12T07:02:49.900Z,29.30
2017-11-12T07:05:18.755Z,29.33
2017-11-12T07:07:47.586Z,29.70
2017-11-12T07:10:17.208Z,30.90
2017-11-12T07:12:46.812Z,32.23
2017-11-12T07:15:15.682Z,28.80
2017-11-12T07:17:44.526Z,32.53
2017-11-12T07:20:13.366Z,32.80
2017-11-12T07:22:42.242Z,32.67
2017-11-12T07:25:11.084Z,31.50
2017-11-12T07:27:41.208Z,31.60
2017-11-12T07:30:10.143Z,32.57
2017-11-12T07:32:38.955Z,30.10
2017-11-12T07:35:08.556Z,32.27
2017-11-12T07:37:38.197Z,33.90
2017-11-12T07:40:07.068Z,34.73
2017-11-12T07:42:36.676Z,34.00
2017-11-12T07:45:06.324Z,32.30
2017-11-12T07:47:35.160Z,33.33
2017-11-12T07:50:04.773Z,31.10
2017-11-12T07:52:34.531Z,33.00
2017-11-12T07:55:03.385Z,32.60
2017-11-12T07:57:32.221Z,32.40
2017-11-12T08:00:01.862Z,34.70
2017-11-12T08:02:30.697Z,34.63
2017-11-12T08:04:59.551Z,35.67
2017-11-12T08:07:28.402Z,31.40
2017-11-12T08:09:58.012Z,33.50
2017-11-12T08:12:27.640Z,32.27
2017-11-12T08:14:57.295Z,34.60
2017-11-12T08:17:26.905Z,31.40
2017-11-12T08:19:55.753Z,34.77
2017-11-12T08:22:24.606Z,30.70
2017-11-12T08:24:54.232Z,34.50
2017-11-12T08:27:23.398Z,33.10
2017-11-12T08:29:52.494Z,32.33
2017-11-12T08:32:21.383Z,34.50
2017-11-12T08:34:50.256Z,34.53
2017-11-12T08:37:19.100Z,35.90
2017-11-12T08:39:47.959Z,34.23
2017-11-12T08:42:17.110Z,35.40
2017-11-12T08:44:45.974Z,35.03
2017-11-12T08:47:14.792Z,32.70
2017-11-12T08:49:43.691Z,32.63
2017-11-12T08:52:12.521Z,34.60
2017-11-12T08:54:42.119Z,39.80
2017-11-12T08:57:10.979Z,34.60
2017-11-12T08:59:39.818Z,33.40
2017-11-12T09:02:08.664Z,34.67
2017-11-12T09:04:37.508Z,33.80
2017-11-12T09:07:06.340Z,38.00
2017-11-12T09:09:35.185Z,35.50
2017-11-12T09:12:04.051Z,34.27
2017-11-12T09:14:33.665Z,32.50
2017-11-12T09:17:03.295Z,34.07
2017-11-12T09:19:32.165Z,33.40
2017-11-12T09:22:01.019Z,37.27
2017-11-12T09:24:29.856Z,33.10
2017-11-12T09:26:58.696Z,30.77
2017-11-12T09:29:29.055Z,30.37
2017-11-12T09:31:57.938Z,29.23
2017-11-12T09:34:27.559Z,26.80
2017-11-12T09:36:57.157Z,24.00
2017-11-12T09:39:26.751Z,27.73
2017-11-12T09:41:56.381Z,33.50
2017-11-12T09:44:25.241Z,34.47
2017-11-12T09:46:54.877Z,27.10
2017-11-12T09:49:23.726Z,30.03
2017-11-12T09:51:52.627Z,28.60
2017-11-12T09:54:22.254Z,28.30
2017-11-12T09:56:51.120Z,28.07
2017-11-12T09:59:19.949Z,27.87
2017-11-12T10:01:48.835Z,29.50
2017-11-12T10:04:17.662Z,24.50
2017-11-12T10:06:46.513Z,26.23
2017-11-12T10:09:16.124Z,28.10
2017-11-12T10:11:45.724Z,22.10
2017-11-12T10:14:15.349Z,21.20
2017-11-12T10:16:44.207Z,22.93
2017-11-12T10:19:13.862Z,20.30
2017-11-12T10:21:42.728Z,20.50
2017-11-12T10:24:11.616Z,18.80
2017-11-12T10:26:41.276Z,17.00
2017-11-12T10:29:10.122Z,18.50
2017-11-12T10:31:38.979Z,15.60
2017-11-12T10:34:08.705Z,17.67
2017-11-12T10:36:38.339Z,16.00
2017-11-12T10:39:07.200Z,17.67
2017-11-12T10:41:36.856Z,16.27
2017-11-12T10:44:05.734Z,17.53
2017-11-12T10:46:34.584Z,17.00
2017-11-12T10:49:04.246Z,22.17
2017-11-12T10:51:33.130Z,18.17
2017-11-12T10:54:02.025Z,17.80
2017-11-12T10:56:31.716Z,16.70
2017-11-12T10:59:01.099Z,17.20
2017-11-12T11:01:29.952Z,14.60
2017-11-12T11:03:58.837Z,13.37
2017-11-12T11:06:28.532Z,13.40
2017-11-12T11:08:58.784Z,11.47
2017-11-12T11:11:27.660Z,10.17
2017-11-12T11:13:56.652Z,9.30
2017-11-12T11:16:26.266Z,8.53
2017-11-12T11:18:55.109Z,7.70
2017-11-12T11:21:24.916Z,8.37
2017-11-12T11:23:53.777Z,9.40
2017-11-12T11:26:22.714Z,8.47
2017-11-12T11:28:52.507Z,8.63
2017-11-12T11:31:21.382Z,8.73
2017-11-12T11:33:50.266Z,9.57
2017-11-12T11:36:19.610Z,8.83
2017-11-12T11:38:48.511Z,9.37
2017-11-12T11:41:18.736Z,10.10
2017-11-12T11:43:48.331Z,10.10
2017-11-12T11:46:18.031Z,10.10
2017-11-12T11:48:47.673Z,10.83
2017-11-12T11:51:16.584Z,8.07
2017-11-12T11:53:46.179Z,9.90
2017-11-12T11:56:15.076Z,10.47
2017-11-12T11:58:43.926Z,13.23
2017-11-12T12:01:13.531Z,8.93
2017-11-12T12:03:43.151Z,9.90
2017-11-12T12:06:12.124Z,13.10
2017-11-12T12:08:40.990Z,16.03
2017-11-12T12:11:09.936Z,12.27
2017-11-12T12:13:38.795Z,10.40
2017-11-12T12:16:08.439Z,10.80
2017-11-12T12:18:37.295Z,13.43
2017-11-12T12:21:06.922Z,11.77
2017-11-12T12:23:35.811Z,12.73
2017-11-12T12:26:04.656Z,9.97
2017-11-12T12:28:33.490Z,12.40
2017-11-12T12:31:02.353Z,11.57
2017-11-12T12:33:31.287Z,11.37
2017-11-12T12:36:00.798Z,9.00
2017-11-12T12:38:29.647Z,10.93
2017-11-12T12:40:58.534Z,11.93
2017-11-12T12:43:28.155Z,11.87
2017-11-12T12:45:57.781Z,12.17
2017-11-12T12:48:26.625Z,11.97
2017-11-12T12:50:55.496Z,10.73
2017-11-12T12:53:25.894Z,11.80
2017-11-12T12:55:54.764Z,13.50
2017-11-12T12:58:23.613Z,13.30
2017-11-12T13:00:53.268Z,12.80
2017-11-12T13:03:22.151Z,13.53
2017-11-12T13:05:51.375Z,14.37
2017-11-12T13:08:20.253Z,14.60
2017-11-12T13:10:49.123Z,13.20
2017-11-12T13:13:18.730Z,12.80
2017-11-12T13:15:47.611Z,12.90
2017-11-12T13:18:16.473Z,12.40
2017-11-12T13:20:46.135Z,13.47
2017-11-12T13:23:15.000Z,13.13
2017-11-12T13:25:43.882Z,12.30
2017-11-12T13:28:14.358Z,13.97
2017-11-12T13:30:43.201Z,13.27
2017-11-12T13:33:13.017Z,13.93
2017-11-12T13:35:41.900Z,15.67
2017-11-12T13:38:11.523Z,16.43
2017-11-12T13:40:40.464Z,16.97
2017-11-12T13:43:09.320Z,16.50
2017-11-12T13:45:38.247Z,17.00
2017-11-12T13:48:07.092Z,17.67
2017-11-12T13:50:36.094Z,17.70
2017-11-12T13:53:05.007Z,20.73
2017-11-12T13:55:34.074Z,20.30
2017-11-12T13:58:02.943Z,17.23
2017-11-12T14:00:31.784Z,18.30
2017-11-12T14:03:00.680Z,18.50
2017-11-12T14:05:29.542Z,18.00
2017-11-12T14:07:59.611Z,17.73
2017-11-12T14:10:29.573Z,24.63
2017-11-12T14:12:59.209Z,18.80
2017-11-12T14:15:28.048Z,18.67
2017-11-12T14:17:56.885Z,17.13
2017-11-12T14:20:25.755Z,18.83
2017-11-12T14:22:54.948Z,19.10
2017-11-12T14:25:24.574Z,19.37
2017-11-12T14:27:53.403Z,19.23
2017-11-12T14:30:22.755Z,19.30
2017-11-12T14:32:52.470Z,16.93
2017-11-12T14:35:21.668Z,18.60
2017-11-12T14:37:51.324Z,15.90
2017-11-12T14:40:20.157Z,15.70
2017-11-12T14:42:49.793Z,18.60
2017-11-12T14:45:18.867Z,16.77
2017-11-12T14:47:48.141Z,19.00
2017-11-12T14:50:17.753Z,16.10
2017-11-12T14:52:47.387Z,18.40
2017-11-12T14:55:16.236Z,16.17
2017-11-12T14:57:45.126Z,15.30
2017-11-12T15:00:15.445Z,17.63
2017-11-12T15:02:44.306Z,19.93
2017-11-12T15:05:13.965Z,14.70
2017-11-12T15:07:42.789Z,15.63
2017-11-12T15:10:12.422Z,17.77
2017-11-12T15:12:42.057Z,16.07
2017-11-12T15:15:10.901Z,24.27
2017-11-12T15:17:39.779Z,17.83
2017-11-12T15:20:08.630Z,17.27
2017-11-12T15:22:37.498Z,15.93
2017-11-12T15:25:06.964Z,18.97
2017-11-12T15:27:35.854Z,16.20
2017-11-12T15:30:05.160Z,17.60
2017-11-12T15:32:34.792Z,19.20
2017-11-12T15:35:04.409Z,17.50
2017-11-12T15:37:34.034Z,20.53
2017-11-12T15:40:02.911Z,19.10
2017-11-12T15:42:32.482Z,18.47
2017-11-12T15:45:01.401Z,16.90
2017-11-12T15:47:31.042Z,17.20
2017-11-12T15:49:59.892Z,19.33
2017-11-12T15:52:28.786Z,16.40
2017-11-12T15:54:58.458Z,17.50
2017-11-12T15:57:27.313Z,18.50
2017-11-12T15:59:57.744Z,17.33
2017-11-12T16:02:27.612Z,18.40
2017-11-12T16:04:56.454Z,17.90
2017-11-12T16:07:25.337Z,20.03
2017-11-12T16:09:54.441Z,20.50
2017-11-12T16:12:23.317Z,20.13
2017-11-12T16:14:52.952Z,21.90
2017-11-12T16:17:22.624Z,19.37
2017-11-12T16:19:51.490Z,17.70
2017-11-12T16:22:20.331Z,21.93
2017-11-12T16:24:49.941Z,22.47
2017-11-12T16:27:18.788Z,22.10
2017-11-12T16:29:47.623Z,21.57
2017-11-12T16:32:16.458Z,23.83
2017-11-12T16:34:45.317Z,26.90
2017-11-12T16:37:14.779Z,22.60
2017-11-12T16:39:43.619Z,19.57
2017-11-12T16:42:12.492Z,17.40
2017-11-12T16:44:42.114Z,16.70
2017-11-12T16:47:11.020Z,14.03
2017-11-12T16:49:39.877Z,11.63
2017-11-12T16:52:09.521Z,11.63
2017-11-12T16:54:38.363Z,13.20
2017-11-12T16:57:07.188Z,14.07
2017-11-12T16:59:36.098Z,8.50
2017-11-12T17:02:05.717Z,8.93
2017-11-12T17:04:34.592Z,8.97
2017-11-12T17:07:04.239Z,7.57
2017-11-12T17:09:33.115Z,8.33
2017-11-12T17:12:02.476Z,9.47
2017-11-12T17:14:31.545Z,8.60
2017-11-12T17:17:01.204Z,8.33
2017-11-12T17:19:30.831Z,8.63
2017-11-12T17:21:59.694Z,7.17
2017-11-12T17:24:29.388Z,7.40
2017-11-12T17:26:58.218Z,7.20
2017-11-12T17:29:27.068Z,7.60
2017-11-12T17:31:56.704Z,7.57
2017-11-12T17:34:25.565Z,6.47
2017-11-12T17:36:55.196Z,7.80
2017-11-12T17:39:24.081Z,7.40
2017-11-12T17:41:53.662Z,6.63
2017-11-12T17:44:23.788Z,7.07
2017-11-12T17:46:53.490Z,7.57
2017-11-12T17:49:22.405Z,7.30
2017-11-12T17:51:52.004Z,6.70
2017-11-12T17:54:22.558Z,8.00
2017-11-12T17:56:51.542Z,7.80
2017-11-12T17:59:21.174Z,6.60
2017-11-12T18:01:50.021Z,7.30
2017-11-12T18:04:19.653Z,7.90
2017-11-12T18:06:49.500Z,7.57
2017-11-12T18:09:18.362Z,7.17
2017-11-12T18:11:47.188Z,7.40
2017-11-12T18:14:16.113Z,8.03
2017-11-12T18:16:44.930Z,8.90
2017-11-12T18:19:13.785Z,9.67
2017-11-12T18:21:43.005Z,9.80
2017-11-12T18:24:11.893Z,11.50
2017-11-12T18:26:40.807Z,9.53
2017-11-12T18:29:09.728Z,10.63
2017-11-12T18:31:38.573Z,11.00
2017-11-12T18:34:07.449Z,10.90
2017-11-12T18:36:36.340Z,11.33
2017-11-12T18:39:05.210Z,10.20
2017-11-12T18:41:34.881Z,11.50
2017-11-12T18:44:03.757Z,10.00
2017-11-12T18:46:33.111Z,9.70
2017-11-12T18:49:01.968Z,9.23
2017-11-12T18:51:30.830Z,10.60
2017-11-12T18:53:59.751Z,10.63
2017-11-12T18:56:32.122Z,10.80
2017-11-12T18:59:05.988Z,10.27
2017-11-12T19:14:57.931Z,10.90
2017-11-12T19:17:31.508Z,10.67
2017-11-12T19:20:08.243Z,10.13
2017-11-12T19:22:37.094Z,9.40
2017-11-12T19:25:11.747Z,9.70
2017-11-12T19:27:40.603Z,10.93
2017-11-12T19:30:09.885Z,9.07
2017-11-12T19:32:38.914Z,10.13
2017-11-12T19:35:07.758Z,10.33
2017-11-12T19:37:37.580Z,11.00
2017-11-12T19:40:08.038Z,9.13
2017-11-12T19:42:39.874Z,10.40
2017-11-12T19:45:11.525Z,7.60
2017-11-12T19:47:42.269Z,7.73
2017-11-12T19:50:18.902Z,9.17
2017-11-12T19:52:52.050Z,9.13
2017-11-12T19:55:25.898Z,8.00
2017-11-12T19:57:57.557Z,8.30
2017-11-12T20:00:27.715Z,8.43
2017-11-12T20:03:01.134Z,9.00
2017-11-12T20:05:32.736Z,9.03
2017-11-12T20:08:13.375Z,8.47
2017-11-12T20:10:44.829Z,7.97
2017-11-12T20:13:14.408Z,8.67
2017-11-12T20:15:45.949Z,8.97
2017-11-12T20:18:17.881Z,8.87
2017-11-12T20:20:51.078Z,8.43
2017-11-12T20:23:20.564Z,9.90
2017-11-12T20:35:34.422Z,8.03
2017-11-12T20:38:04.194Z,8.20
2017-11-12T20:40:33.916Z,7.40
2017-11-12T20:43:03.980Z,8.73
2017-11-12T20:45:32.846Z,7.80
2017-11-12T20:48:01.680Z,7.40
2017-11-12T20:50:30.853Z,8.07
2017-11-12T20:52:59.742Z,7.67
2017-11-12T20:55:29.536Z,9.03
2017-11-12T20:57:58.468Z,8.57
2017-11-12T21:00:29.056Z,7.77
2017-11-12T21:02:58.206Z,9.47
2017-11-12T21:18:27.108Z,7.30
2017-11-12T21:20:57.612Z,7.60
2017-11-12T21:37:03.289Z,7.93
2017-11-12T21:39:32.109Z,6.70
2017-11-12T21:42:01.807Z,8.10
2017-11-12T21:44:30.646Z,6.17
2017-11-12T21:46:59.751Z,6.60
2017-11-12T21:49:28.574Z,7.27
2017-11-12T21:51:57.420Z,6.83
2017-11-12T21:54:26.406Z,7.93
2017-11-12T21:56:55.298Z,7.60
2017-11-12T21:59:24.204Z,9.07
2017-11-12T22:01:53.993Z,9.07
2017-11-12T22:04:23.609Z,9.60
2017-11-12T22:06:52.455Z,8.07
2017-11-12T22:09:21.314Z,8.43
2017-11-12T22:11:50.152Z,9.90
2017-11-12T22:14:18.977Z,6.80
2017-11-12T22:16:47.820Z,8.37
2017-11-12T22:19:16.661Z,6.80
2017-11-12T22:21:45.521Z,9.30
2017-11-12T22:24:15.140Z,7.40
2017-11-12T22:26:44.049Z,6.93
2017-11-12T22:29:12.886Z,7.80
2017-11-12T22:31:41.761Z,6.40
2017-11-12T22:34:10.602Z,7.63
2017-11-12T22:36:39.441Z,7.00
2017-11-12T22:39:08.279Z,7.83
2017-11-12T22:41:37.114Z,7.80
2017-11-12T22:44:05.956Z,7.30
2017-11-12T22:46:34.777Z,7.37
2017-11-12T22:49:03.633Z,6.87
2017-11-12T22:51:32.445Z,7.00
2017-11-12T22:54:01.535Z,6.53
2017-11-12T22:56:30.386Z,5.70
2017-11-12T22:58:59.206Z,6.23
2017-11-12T23:01:28.047Z,5.67
2017-11-12T23:03:56.946Z,5.70
2017-11-12T23:06:25.784Z,6.87
2017-11-12T23:08:55.618Z,6.40
2017-11-12T23:11:24.458Z,6.10
2017-11-12T23:13:53.292Z,7.10
2017-11-12T23:16:22.139Z,6.27
2017-11-12T23:18:50.956Z,5.93
2017-11-12T23:21:19.801Z,6.10
2017-11-12T23:23:48.627Z,5.63
2017-11-12T23:26:18.383Z,5.33
2017-11-12T23:28:47.236Z,6.63
2017-11-12T23:31:16.084Z,5.83
2017-11-12T23:33:44.909Z,6.50
2017-11-12T23:36:14.302Z,5.83
2017-11-12T23:38:43.152Z,5.87
2017-11-12T23:41:11.968Z,6.07
2017-11-12T23:43:41.018Z,6.00
2017-11-12T23:46:10.632Z,6.80
2017-11-12T23:48:39.819Z,6.10
2017-11-12T23:51:09.994Z,6.43
2017-11-12T23:53:38.840Z,7.17
2017-11-12T23:56:08.428Z,6.67
2017-11-12T23:58:38.020Z,5.77
